sensor_id;sensor_type;location;lat;lon;timestamp;pressure;altitude;pressure_sealevel;temperature;humidity
67842;BME280;54642;59.126;37.876;2023-03-04T00:00:15;98023.25;;;0.09;73.58
67842;BME280;54642;59.126;37.876;2023-03-04T00:02:41;98004.50;;;-0.01;73.53
67842;BME280;54642;59.126;37.876;2023-03-04T00:05:07;97989.22;;;0.01;73.54
67842;BME280;54642;59.126;37.876;2023-03-04T00:07:33;98035.19;;;0.32;73.65
67842;BME280;54642;59.126;37.876;2023-03-04T00:09:59;98017.34;;;0.27;73.44
67842;BME280;54642;59.126;37.876;2023-03-04T00:12:25;98003.72;;;0.13;73.42
67842;BME280;54642;59.126;37.876;2023-03-04T00:14:51;98017.38;;;0.29;73.52
67842;BME280;54642;59.126;37.876;2023-03-04T00:17:17;98022.47;;;0.36;73.30
67842;BME280;54642;59.126;37.876;2023-03-04T00:19:43;98024.16;;;0.31;73.33
67842;BME280;54642;59.126;37.876;2023-03-04T00:22:08;98016.53;;;0.33;73.27
67842;BME280;54642;59.126;37.876;2023-03-04T00:24:34;97963.75;;;-0.02;73.14
67842;BME280;54642;59.126;37.876;2023-03-04T00:27:00;97993.53;;;0.13;73.41
67842;BME280;54642;59.126;37.876;2023-03-04T00:29:27;98002.03;;;0.15;73.53
67842;BME280;54642;59.126;37.876;2023-03-04T00:31:52;98013.94;;;0.22;73.40
67842;BME280;54642;59.126;37.876;2023-03-04T00:34:19;98000.31;;;0.08;73.17
67842;BME280;54642;59.126;37.876;2023-03-04T00:36:44;98010.50;;;0.12;73.54
67842;BME280;54642;59.126;37.876;2023-03-04T00:39:11;98008.78;;;0.04;73.47
67842;BME280;54642;59.126;37.876;2023-03-04T00:41:37;97996.84;;;-0.04;73.57
67842;BME280;54642;59.126;37.876;2023-03-04T00:44:04;98012.19;;;0.06;73.63
67842;BME280;54642;59.126;37.876;2023-03-04T00:46:30;98010.47;;;0.03;73.71
67842;BME280;54642;59.126;37.876;2023-03-04T00:48:56;97983.25;;;-0.12;73.66
67842;BME280;54642;59.126;37.876;2023-03-04T00:51:22;97978.19;;;-0.09;74.13
67842;BME280;54642;59.126;37.876;2023-03-04T00:53:48;97990.06;;;-0.05;74.03
67842;BME280;54642;59.126;37.876;2023-03-04T00:56:13;98001.13;;;0.02;73.99
67842;BME280;54642;59.126;37.876;2023-03-04T00:58:39;97982.41;;;-0.09;73.72
67842;BME280;54642;59.126;37.876;2023-03-04T01:01:06;97996.88;;;-0.05;73.64
67842;BME280;54642;59.126;37.876;2023-03-04T01:03:32;97981.53;;;-0.16;73.85
67842;BME280;54642;59.126;37.876;2023-03-04T01:05:59;97999.41;;;-0.05;74.09
67842;BME280;54642;59.126;37.876;2023-03-04T01:08:25;97961.13;;;-0.22;73.83
67842;BME280;54642;59.126;37.876;2023-03-04T01:10:52;97991.75;;;-0.04;73.96
67842;BME280;54642;59.126;37.876;2023-03-04T01:13:18;97957.72;;;-0.24;73.94
67842;BME280;54642;59.126;37.876;2023-03-04T01:15:44;97923.72;;;-0.42;73.89
67842;BME280;54642;59.126;37.876;2023-03-04T01:18:10;97970.50;;;-0.16;73.88
67842;BME280;54642;59.126;37.876;2023-03-04T01:20:35;97983.28;;;-0.03;73.91
67842;BME280;54642;59.126;37.876;2023-03-04T01:23:01;97960.31;;;-0.20;74.00
67842;BME280;54642;59.126;37.876;2023-03-04T01:25:27;97979.88;;;-0.05;74.06
67842;BME280;54642;59.126;37.876;2023-03-04T01:27:53;97963.69;;;-0.21;73.68
67842;BME280;54642;59.126;37.876;2023-03-04T01:30:19;97936.44;;;-0.40;73.85
67842;BME280;54642;59.126;37.876;2023-03-04T01:32:45;97960.31;;;-0.16;73.98
67842;BME280;54642;59.126;37.876;2023-03-04T01:35:11;97970.53;;;-0.10;73.95
67842;BME280;54642;59.126;37.876;2023-03-04T01:37:37;97966.28;;;-0.04;74.12
67842;BME280;54642;59.126;37.876;2023-03-04T01:40:03;97965.47;;;-0.03;73.92
67842;BME280;54642;59.126;37.876;2023-03-04T01:42:33;97922.94;;;-0.24;73.93
67842;BME280;54642;59.126;37.876;2023-03-04T01:45:00;97968.88;;;0.04;73.81
67842;BME280;54642;59.126;37.876;2023-03-04T01:47:30;97917.00;;;-0.24;73.74
67842;BME280;54642;59.126;37.876;2023-03-04T01:49:59;97907.66;;;-0.31;73.79
67842;BME280;54642;59.126;37.876;2023-03-04T01:52:27;97953.56;;;-0.04;73.89
67842;BME280;54642;59.126;37.876;2023-03-04T01:54:53;97966.31;;;-0.01;74.03
67842;BME280;54642;59.126;37.876;2023-03-04T01:57:21;97944.19;;;-0.11;74.08
67842;BME280;54642;59.126;37.876;2023-03-04T02:02:40;97954.44;;;-0.02;74.05
67842;BME280;54642;59.126;37.876;2023-03-04T02:05:05;97956.13;;;-0.01;74.13
67842;BME280;54642;59.126;37.876;2023-03-04T02:07:32;97900.84;;;-0.37;74.14
67842;BME280;54642;59.126;37.876;2023-03-04T02:09:59;97956.94;;;-0.12;73.96
67842;BME280;54642;59.126;37.876;2023-03-04T02:12:25;97950.16;;;-0.06;73.95
67842;BME280;54642;59.126;37.876;2023-03-04T02:14:51;97925.53;;;-0.13;74.17
67842;BME280;54642;59.126;37.876;2023-03-04T02:17:22;97907.66;;;-0.25;74.12
67842;BME280;54642;59.126;37.876;2023-03-04T02:22:23;97922.97;;;-0.21;73.82
67842;BME280;54642;59.126;37.876;2023-03-04T02:24:49;97921.28;;;-0.09;73.87
67842;BME280;54642;59.126;37.876;2023-03-04T02:27:20;97909.41;;;-0.20;74.01
67842;BME280;54642;59.126;37.876;2023-03-04T02:29:46;97934.81;;;-0.27;74.11
67842;BME280;54642;59.126;37.876;2023-03-04T02:32:12;97950.97;;;-0.19;74.07
67842;BME280;54642;59.126;37.876;2023-03-04T02:34:45;97941.63;;;-0.20;74.09
67842;BME280;54642;59.126;37.876;2023-03-04T02:37:13;97908.47;;;-0.39;73.76
67842;BME280;54642;59.126;37.876;2023-03-04T02:39:44;97945.06;;;-0.10;74.09
67842;BME280;54642;59.126;37.876;2023-03-04T02:42:11;97945.91;;;-0.10;74.18
67842;BME280;54642;59.126;37.876;2023-03-04T02:44:39;97940.78;;;-0.13;74.12
67842;BME280;54642;59.126;37.876;2023-03-04T02:47:08;97929.81;;;-0.09;73.89
67842;BME280;54642;59.126;37.876;2023-03-04T02:49:37;97888.13;;;-0.29;74.13
67842;BME280;54642;59.126;37.876;2023-03-04T02:54:36;97905.97;;;-0.22;74.06
67842;BME280;54642;59.126;37.876;2023-03-04T02:57:06;97917.03;;;-0.16;74.26
67842;BME280;54642;59.126;37.876;2023-03-04T02:59:35;97916.19;;;-0.15;74.23
67842;BME280;54642;59.126;37.876;2023-03-04T03:02:02;97863.50;;;-0.46;74.18
67842;BME280;54642;59.126;37.876;2023-03-04T03:04:29;97896.66;;;-0.21;74.26
67842;BME280;54642;59.126;37.876;2023-03-04T03:06:55;97909.41;;;-0.20;74.21
67842;BME280;54642;59.126;37.876;2023-03-04T03:09:21;97867.78;;;-0.31;74.12
67842;BME280;54642;59.126;37.876;2023-03-04T03:11:48;97906.88;;;-0.09;74.18
67842;BME280;54642;59.126;37.876;2023-03-04T03:14:14;97899.25;;;-0.09;74.15
67842;BME280;54642;59.126;37.876;2023-03-04T03:16:40;97896.66;;;-0.15;74.47
67842;BME280;54642;59.126;37.876;2023-03-04T03:19:06;97900.13;;;-0.05;74.43
67842;BME280;54642;59.126;37.876;2023-03-04T03:21:34;97853.38;;;-0.30;74.30
67842;BME280;54642;59.126;37.876;2023-03-04T03:24:00;97906.03;;;-0.09;74.41
67842;BME280;54642;59.126;37.876;2023-03-04T03:26:26;97863.53;;;-0.29;74.48
67842;BME280;54642;59.126;37.876;2023-03-04T03:28:51;97886.50;;;-0.07;74.67
67842;BME280;54642;59.126;37.876;2023-03-04T03:31:17;97886.50;;;-0.07;74.64
67842;BME280;54642;59.126;37.876;2023-03-04T03:33:45;97873.78;;;-0.13;74.48
67842;BME280;54642;59.126;37.876;2023-03-04T03:36:11;97858.50;;;-0.20;74.37
67842;BME280;54642;59.126;37.876;2023-03-04T03:38:37;97858.50;;;-0.20;74.34
67842;BME280;54642;59.126;37.876;2023-03-04T03:41:03;97860.19;;;-0.08;74.54
67842;BME280;54642;59.126;37.876;2023-03-04T03:43:29;97873.81;;;0.02;74.33
67842;BME280;54642;59.126;37.876;2023-03-04T03:45:55;97869.53;;;-0.04;74.29
67842;BME280;54642;59.126;37.876;2023-03-04T03:48:21;97853.38;;;-0.16;74.42
67842;BME280;54642;59.126;37.876;2023-03-04T03:50:47;97872.94;;;-0.08;74.52
67842;BME280;54642;59.126;37.876;2023-03-04T03:53:13;97861.91;;;-0.07;74.62
67842;BME280;54642;59.126;37.876;2023-03-04T03:55:38;97865.28;;;-0.09;74.72
67842;BME280;54642;59.126;37.876;2023-03-04T03:58:05;97835.56;;;-0.24;74.44
67842;BME280;54642;59.126;37.876;2023-03-04T04:00:31;97840.66;;;-0.21;74.78
67842;BME280;54642;59.126;37.876;2023-03-04T04:02:59;97841.50;;;-0.22;74.76
67842;BME280;54642;59.126;37.876;2023-03-04T04:05:25;97835.56;;;-0.21;74.75
67842;BME280;54642;59.126;37.876;2023-03-04T04:07:51;97849.16;;;-0.16;74.64
67842;BME280;54642;59.126;37.876;2023-03-04T04:10:17;97842.38;;;-0.14;75.00
67842;BME280;54642;59.126;37.876;2023-03-04T04:12:43;97845.75;;;-0.15;74.75
67842;BME280;54642;59.126;37.876;2023-03-04T04:15:12;97821.13;;;-0.28;74.87
67842;BME280;54642;59.126;37.876;2023-03-04T04:17:38;97805.84;;;-0.39;74.78
67842;BME280;54642;59.126;37.876;2023-03-04T04:20:06;97772.69;;;-0.59;74.67
67842;BME280;54642;59.126;37.876;2023-03-04T04:22:32;97829.63;;;-0.34;74.67
67842;BME280;54642;59.126;37.876;2023-03-04T04:24:58;97810.94;;;-0.37;74.82
67842;BME280;54642;59.126;37.876;2023-03-04T04:27:24;97831.31;;;-0.24;74.82
67842;BME280;54642;59.126;37.876;2023-03-04T04:29:50;97839.78;;;-0.28;74.65
67842;BME280;54642;59.126;37.876;2023-03-04T04:32:16;97840.63;;;-0.29;74.79
67842;BME280;54642;59.126;37.876;2023-03-04T04:34:42;97839.78;;;-0.28;75.10
67842;BME280;54642;59.126;37.876;2023-03-04T04:37:07;97838.94;;;-0.25;75.35
67842;BME280;54642;59.126;37.876;2023-03-04T04:39:33;97838.97;;;-0.21;75.07
67842;BME280;54642;59.126;37.876;2023-03-04T04:41:59;97818.56;;;-0.33;74.90
67842;BME280;54642;59.126;37.876;2023-03-04T04:44:25;97835.56;;;-0.18;74.76
67842;BME280;54642;59.126;37.876;2023-03-04T04:46:51;97832.16;;;-0.22;74.55
67842;BME280;54642;59.126;37.876;2023-03-04T04:49:17;97836.41;;;-0.22;74.72
67842;BME280;54642;59.126;37.876;2023-03-04T04:51:43;97832.16;;;-0.29;74.85
67842;BME280;54642;59.126;37.876;2023-03-04T04:54:08;97838.09;;;-0.26;74.79
67842;BME280;54642;59.126;37.876;2023-03-04T04:56:35;97834.69;;;-0.34;74.48
67842;BME280;54642;59.126;37.876;2023-03-04T04:59:03;97772.69;;;-0.65;75.04
67842;BME280;54642;59.126;37.876;2023-03-04T05:01:29;97833.00;;;-0.30;75.08
67842;BME280;54642;59.126;37.876;2023-03-04T05:03:55;97782.88;;;-0.62;75.09
67842;BME280;54642;59.126;37.876;2023-03-04T05:06:22;97816.00;;;-0.42;75.17
67842;BME280;54642;59.126;37.876;2023-03-04T05:08:49;97788.00;;;-0.53;75.05
67842;BME280;54642;59.126;37.876;2023-03-04T05:11:15;97797.34;;;-0.46;75.21
67842;BME280;54642;59.126;37.876;2023-03-04T05:13:42;97825.38;;;-0.33;75.45
67842;BME280;54642;59.126;37.876;2023-03-04T05:16:07;97834.69;;;-0.28;75.19
67842;BME280;54642;59.126;37.876;2023-03-04T05:18:34;97829.59;;;-0.29;75.44
67842;BME280;54642;59.126;37.876;2023-03-04T05:21:02;97789.69;;;-0.55;75.60
67842;BME280;54642;59.126;37.876;2023-03-04T05:23:30;97827.06;;;-0.26;75.56
67842;BME280;54642;59.126;37.876;2023-03-04T05:25:56;97833.03;;;-0.20;75.51
67842;BME280;54642;59.126;37.876;2023-03-04T05:28:22;97817.75;;;-0.18;75.48
67842;BME280;54642;59.126;37.876;2023-03-04T05:30:48;97825.41;;;-0.10;75.49
67842;BME280;54642;59.126;37.876;2023-03-04T05:33:15;97816.06;;;-0.13;74.96
67842;BME280;54642;59.126;37.876;2023-03-04T05:35:42;97820.31;;;-0.06;75.04
67842;BME280;54642;59.126;37.876;2023-03-04T05:38:13;97824.56;;;-0.05;74.93
67842;BME280;54642;59.126;37.876;2023-03-04T05:40:40;97808.44;;;-0.19;74.66
67842;BME280;54642;59.126;37.876;2023-03-04T05:43:07;97827.09;;;-0.08;74.77
67842;BME280;54642;59.126;37.876;2023-03-04T05:45:33;97810.13;;;-0.13;74.99
67842;BME280;54642;59.126;37.876;2023-03-04T05:47:59;97817.78;;;-0.03;74.86
67842;BME280;54642;59.126;37.876;2023-03-04T05:50:25;97794.84;;;-0.21;74.76
67842;BME280;54642;59.126;37.876;2023-03-04T05:52:51;97757.50;;;-0.37;74.75
67842;BME280;54642;59.126;37.876;2023-03-04T05:55:18;97811.81;;;-0.08;74.51
67842;BME280;54642;59.126;37.876;2023-03-04T05:57:44;97809.31;;;-0.03;74.86
67842;BME280;54642;59.126;37.876;2023-03-04T06:00:12;97762.59;;;-0.24;74.53
67842;BME280;54642;59.126;37.876;2023-03-04T06:02:39;97789.78;;;0.01;74.37
67842;BME280;54642;59.126;37.876;2023-03-04T06:05:06;97814.41;;;0.26;74.49
67842;BME280;54642;59.126;37.876;2023-03-04T06:07:33;97786.41;;;0.22;74.27
67842;BME280;54642;59.126;37.876;2023-03-04T06:09:59;97807.59;;;0.31;74.07
67842;BME280;54642;59.126;37.876;2023-03-04T06:12:25;97710.84;;;-0.21;73.99
67842;BME280;54642;59.126;37.876;2023-03-04T06:14:51;97799.09;;;0.34;74.27
67842;BME280;54642;59.126;37.876;2023-03-04T06:17:17;97788.06;;;0.33;74.35
67842;BME280;54642;59.126;37.876;2023-03-04T06:19:42;97745.66;;;0.08;74.45
67842;BME280;54642;59.126;37.876;2023-03-04T06:22:09;97796.56;;;0.35;74.59
67842;BME280;54642;59.126;37.876;2023-03-04T06:24:35;97794.84;;;0.37;74.80
67842;BME280;54642;59.126;37.876;2023-03-04T06:27:01;97792.31;;;0.47;74.67
67842;BME280;54642;59.126;37.876;2023-03-04T06:29:27;97779.56;;;0.50;74.29
67842;BME280;54642;59.126;37.876;2023-03-04T06:31:53;97779.56;;;0.44;74.38
67842;BME280;54642;59.126;37.876;2023-03-04T06:34:20;97806.75;;;0.54;74.30
67842;BME280;54642;59.126;37.876;2023-03-04T06:36:46;97796.56;;;0.54;74.44
67842;BME280;54642;59.126;37.876;2023-03-04T06:39:11;97799.09;;;0.63;74.20
67842;BME280;54642;59.126;37.876;2023-03-04T06:41:39;97765.97;;;0.45;74.05
67842;BME280;54642;59.126;37.876;2023-03-04T06:44:05;97764.25;;;0.50;73.80
67842;BME280;54642;59.126;37.876;2023-03-04T06:46:34;97792.28;;;0.70;73.82
67842;BME280;54642;59.126;37.876;2023-03-04T06:49:01;97780.38;;;0.67;73.94
67842;BME280;54642;59.126;37.876;2023-03-04T06:51:27;97780.38;;;0.70;73.93
67842;BME280;54642;59.126;37.876;2023-03-04T06:53:53;97804.16;;;0.85;73.54
67842;BME280;54642;59.126;37.876;2023-03-04T06:56:19;97766.81;;;0.56;73.45
67842;BME280;54642;59.126;37.876;2023-03-04T06:58:45;97799.88;;;0.84;73.44
67842;BME280;54642;59.126;37.876;2023-03-04T07:01:19;97804.16;;;0.85;73.49
67842;BME280;54642;59.126;37.876;2023-03-04T07:03:46;97815.22;;;0.74;73.05
67842;BME280;54642;59.126;37.876;2023-03-04T07:06:14;97816.91;;;0.71;73.42
67842;BME280;54642;59.126;37.876;2023-03-04T07:08:40;97694.69;;;0.03;73.20
67842;BME280;54642;59.126;37.876;2023-03-04T07:11:07;97794.81;;;0.62;73.31
67842;BME280;54642;59.126;37.876;2023-03-04T07:13:34;97754.94;;;0.41;73.30
67842;BME280;54642;59.126;37.876;2023-03-04T07:16:04;97806.72;;;0.74;73.33
67842;BME280;54642;59.126;37.876;2023-03-04T07:18:30;97790.56;;;0.76;73.32
67842;BME280;54642;59.126;37.876;2023-03-04T07:20:56;97800.72;;;0.92;73.35
67842;BME280;54642;59.126;37.876;2023-03-04T07:23:22;97789.69;;;0.88;73.22
67842;BME280;54642;59.126;37.876;2023-03-04T07:25:48;97785.44;;;0.93;73.27
67842;BME280;54642;59.126;37.876;2023-03-04T07:28:15;97704.78;;;0.63;72.98
67842;BME280;54642;59.126;37.876;2023-03-04T07:30:43;97782.84;;;1.04;73.20
67842;BME280;54642;59.126;37.876;2023-03-04T07:33:09;97797.19;;;1.33;72.70
67842;BME280;54642;59.126;37.876;2023-03-04T07:35:35;97747.13;;;1.06;72.52
67842;BME280;54642;59.126;37.876;2023-03-04T07:38:01;97753.06;;;1.06;72.49
67842;BME280;54642;59.126;37.876;2023-03-04T07:40:27;97791.25;;;1.31;72.85
67842;BME280;54642;59.126;37.876;2023-03-04T07:42:54;97794.63;;;1.33;72.48
67842;BME280;54642;59.126;37.876;2023-03-04T07:45:20;97740.28;;;1.12;72.59
67842;BME280;54642;59.126;37.876;2023-03-04T07:47:47;97787.81;;;1.38;72.41
67842;BME280;54642;59.126;37.876;2023-03-04T07:50:13;97774.16;;;1.45;72.34
67842;BME280;54642;59.126;37.876;2023-03-04T07:52:44;97778.31;;;1.57;72.46
67842;BME280;54642;59.126;37.876;2023-03-04T07:55:13;97748.59;;;1.48;72.35
67842;BME280;54642;59.126;37.876;2023-03-04T07:57:40;97711.31;;;1.27;72.19
67842;BME280;54642;59.126;37.876;2023-03-04T08:00:08;97742.63;;;1.52;72.37
67842;BME280;54642;59.126;37.876;2023-03-04T08:02:38;97776.53;;;1.75;72.15
67842;BME280;54642;59.126;37.876;2023-03-04T08:05:04;97725.59;;;1.56;72.16
67842;BME280;54642;59.126;37.876;2023-03-04T08:07:30;97778.16;;;1.85;72.00
67842;BME280;54642;59.126;37.876;2023-03-04T08:09:56;97718.00;;;1.47;71.97
67842;BME280;54642;59.126;37.876;2023-03-04T08:12:24;97772.22;;;1.83;71.99
67842;BME280;54642;59.126;37.876;2023-03-04T08:14:50;97763.69;;;1.82;71.90
67842;BME280;54642;59.126;37.876;2023-03-04T08:17:16;97766.16;;;1.95;71.81
67842;BME280;54642;59.126;37.876;2023-03-04T08:19:42;97772.09;;;2.00;71.66
67842;BME280;54642;59.126;37.876;2023-03-04T08:22:08;97769.63;;;1.87;72.16
67842;BME280;54642;59.126;37.876;2023-03-04T08:24:34;97734.91;;;1.65;71.81
67842;BME280;54642;59.126;37.876;2023-03-04T08:27:00;97765.25;;;2.02;72.09
67842;BME280;54642;59.126;37.876;2023-03-04T08:29:26;97749.13;;;1.97;71.74
67842;BME280;54642;59.126;37.876;2023-03-04T08:31:53;97730.56;;;1.71;71.96
67842;BME280;54642;59.126;37.876;2023-03-04T08:34:22;97766.91;;;2.09;71.77
67842;BME280;54642;59.126;37.876;2023-03-04T08:36:50;97771.97;;;2.18;71.50
67842;BME280;54642;59.126;37.876;2023-03-04T08:39:16;97768.53;;;2.19;71.30
67842;BME280;54642;59.126;37.876;2023-03-04T08:41:43;97776.28;;;2.13;71.51
67842;BME280;54642;59.126;37.876;2023-03-04T08:44:09;97784.72;;;2.20;71.55
67842;BME280;54642;59.126;37.876;2023-03-04T08:46:36;97771.91;;;2.23;71.23
67842;BME280;54642;59.126;37.876;2023-03-04T08:49:02;97771.06;;;2.22;71.10
67842;BME280;54642;59.126;37.876;2023-03-04T08:51:29;97752.41;;;2.13;71.08
67842;BME280;54642;59.126;37.876;2023-03-04T08:53:55;97762.53;;;2.23;71.29
67842;BME280;54642;59.126;37.876;2023-03-04T08:56:20;97771.91;;;2.26;71.08
67842;BME280;54642;59.126;37.876;2023-03-04T08:58:46;97764.34;;;2.14;71.24
67842;BME280;54642;59.126;37.876;2023-03-04T09:01:12;97773.63;;;2.22;71.26
67842;BME280;54642;59.126;37.876;2023-03-04T09:03:39;97718.53;;;1.94;70.93
67842;BME280;54642;59.126;37.876;2023-03-04T09:06:07;97717.63;;;1.95;71.16
67842;BME280;54642;59.126;37.876;2023-03-04T09:08:34;97748.97;;;2.18;70.76
67842;BME280;54642;59.126;37.876;2023-03-04T09:11:00;97735.44;;;2.05;70.88
67842;BME280;54642;59.126;37.876;2023-03-04T09:13:27;97765.97;;;2.22;71.08
67842;BME280;54642;59.126;37.876;2023-03-04T09:15:55;97756.50;;;2.31;71.02
67842;BME280;54642;59.126;37.876;2023-03-04T09:18:22;97707.41;;;1.96;70.88
67842;BME280;54642;59.126;37.876;2023-03-04T09:20:48;97754.88;;;2.23;70.97
67842;BME280;54642;59.126;37.876;2023-03-04T09:23:15;97757.38;;;2.29;71.00
67842;BME280;54642;59.126;37.876;2023-03-04T09:25:42;97731.09;;;2.17;70.83
67842;BME280;54642;59.126;37.876;2023-03-04T09:28:10;97762.41;;;2.37;70.87
67842;BME280;54642;59.126;37.876;2023-03-04T09:30:36;97769.16;;;2.44;70.73
67842;BME280;54642;59.126;37.876;2023-03-04T09:33:02;97760.50;;;2.59;70.59
67842;BME280;54642;59.126;37.876;2023-03-04T09:35:29;97761.25;;;2.71;70.43
67842;BME280;54642;59.126;37.876;2023-03-04T09:37:56;97704.47;;;2.39;70.01
67842;BME280;54642;59.126;37.876;2023-03-04T09:40:25;97697.72;;;2.32;69.79
67842;BME280;54642;59.126;37.876;2023-03-04T09:42:55;97756.19;;;2.64;70.00
67842;BME280;54642;59.126;37.876;2023-03-04T09:45:37;97753.75;;;2.52;70.02
67842;BME280;54642;59.126;37.876;2023-03-04T09:48:09;97754.66;;;2.45;69.96
67842;BME280;54642;59.126;37.876;2023-03-04T09:50:41;97745.50;;;2.24;69.81
67842;BME280;54642;59.126;37.876;2023-03-04T09:53:21;97749.84;;;2.16;70.12
67842;BME280;54642;59.126;37.876;2023-03-04T09:55:50;97712.63;;;1.84;70.28
67842;BME280;54642;59.126;37.876;2023-03-04T09:58:41;97735.59;;;1.84;70.61
67842;BME280;54642;59.126;37.876;2023-03-04T10:01:39;97711.94;;;1.63;70.73
67842;BME280;54642;59.126;37.876;2023-03-04T10:04:15;97747.50;;;1.88;70.86
67842;BME280;54642;59.126;37.876;2023-03-04T10:06:42;97756.00;;;1.88;71.00
67842;BME280;54642;59.126;37.876;2023-03-04T10:09:45;97754.25;;;1.95;71.03
67842;BME280;54642;59.126;37.876;2023-03-04T10:12:15;97752.56;;;1.91;70.81
67842;BME280;54642;59.126;37.876;2023-03-04T10:15:00;97746.53;;;2.06;70.85
67842;BME280;54642;59.126;37.876;2023-03-04T10:17:39;97700.72;;;1.81;70.87
67842;BME280;54642;59.126;37.876;2023-03-04T10:20:53;97739.53;;;2.23;70.87
67842;BME280;54642;59.126;37.876;2023-03-04T10:23:24;97686.19;;;1.89;70.80
67842;BME280;54642;59.126;37.876;2023-03-04T10:25:53;97743.81;;;2.23;70.76
67842;BME280;54642;59.126;37.876;2023-03-04T10:28:27;97727.66;;;2.18;70.67
67842;BME280;54642;59.126;37.876;2023-03-04T10:33:54;97721.00;;;2.03;70.90
67842;BME280;54642;59.126;37.876;2023-03-04T10:36:31;97727.75;;;2.07;71.05
67842;BME280;54642;59.126;37.876;2023-03-04T10:39:02;97704.06;;;1.89;70.97
67842;BME280;54642;59.126;37.876;2023-03-04T10:41:30;97658.31;;;1.66;70.86
67842;BME280;54642;59.126;37.876;2023-03-04T10:46:39;97713.25;;;2.09;70.89
67842;BME280;54642;59.126;37.876;2023-03-04T10:49:05;97710.66;;;2.18;70.92
67842;BME280;54642;59.126;37.876;2023-03-04T10:51:31;97708.09;;;2.18;70.57
67842;BME280;54642;59.126;37.876;2023-03-04T10:54:19;97719.88;;;2.33;70.77
67842;BME280;54642;59.126;37.876;2023-03-04T10:57:03;97713.88;;;2.34;70.33
67842;BME280;54642;59.126;37.876;2023-03-04T11:02:23;97723.44;;;2.18;70.51
67842;BME280;54642;59.126;37.876;2023-03-04T11:04:53;97685.13;;;2.12;70.65
67842;BME280;54642;59.126;37.876;2023-03-04T11:07:24;97711.38;;;2.29;70.32
67842;BME280;54642;59.126;37.876;2023-03-04T11:09:51;97713.16;;;2.23;70.41
67842;BME280;54642;59.126;37.876;2023-03-04T11:12:20;97708.84;;;2.26;70.68
67842;BME280;54642;59.126;37.876;2023-03-04T11:14:49;97708.66;;;2.45;70.57
67842;BME280;54642;59.126;37.876;2023-03-04T11:17:22;97702.59;;;2.55;70.03
67842;BME280;54642;59.126;37.876;2023-03-04T11:22:45;97696.56;;;2.62;69.84
67842;BME280;54642;59.126;37.876;2023-03-04T11:25:25;97607.69;;;2.05;69.87
67842;BME280;54642;59.126;37.876;2023-03-04T11:27:54;97690.69;;;2.53;69.78
67842;BME280;54642;59.126;37.876;2023-03-04T11:30:35;97695.75;;;2.57;69.63
67842;BME280;54642;59.126;37.876;2023-03-04T11:33:28;97712.00;;;2.53;69.71
67842;BME280;54642;59.126;37.876;2023-03-04T11:36:17;97694.19;;;2.44;69.84
67842;BME280;54642;59.126;37.876;2023-03-04T11:38:49;97683.16;;;2.42;70.03
67842;BME280;54642;59.126;37.876;2023-03-04T11:41:40;97673.03;;;2.33;69.68
67842;BME280;54642;59.126;37.876;2023-03-04T11:44:11;97631.50;;;2.10;69.82
67842;BME280;54642;59.126;37.876;2023-03-04T11:49:47;97692.44;;;2.49;69.39
67842;BME280;54642;59.126;37.876;2023-03-04T11:52:35;97684.00;;;2.41;69.85
67842;BME280;54642;59.126;37.876;2023-03-04T11:55:19;97689.03;;;2.48;69.75
67842;BME280;54642;59.126;37.876;2023-03-04T11:58:14;97689.06;;;2.47;69.73
67842;BME280;54642;59.126;37.876;2023-03-04T12:00:53;97678.84;;;2.47;69.77
67842;BME280;54642;59.126;37.876;2023-03-04T12:06:34;97670.28;;;2.50;69.66
67842;BME280;54642;59.126;37.876;2023-03-04T12:12:04;97632.19;;;2.25;69.41
67842;BME280;54642;59.126;37.876;2023-03-04T12:28:47;97646.66;;;2.29;69.48
67842;BME280;54642;59.126;37.876;2023-03-04T12:31:41;97668.75;;;2.33;69.58
67842;BME280;54642;59.126;37.876;2023-03-04T12:36:59;97658.63;;;2.24;69.77
67842;BME280;54642;59.126;37.876;2023-03-04T12:42:29;97661.78;;;2.46;69.89
67842;BME280;54642;59.126;37.876;2023-03-04T12:48:09;97653.22;;;2.48;69.51
67842;BME280;54642;59.126;37.876;2023-03-04T12:53:36;97666.81;;;2.54;69.22
67842;BME280;54642;59.126;37.876;2023-03-04T12:56:05;97648.09;;;2.52;69.14
67842;BME280;54642;59.126;37.876;2023-03-04T12:58:32;97568.63;;;1.99;69.08
67842;BME280;54642;59.126;37.876;2023-03-04T13:01:10;97655.91;;;2.39;69.50
67842;BME280;54642;59.126;37.876;2023-03-04T13:03:55;97648.13;;;2.48;69.35
67842;BME280;54642;59.126;37.876;2023-03-04T13:06:26;97660.94;;;2.47;69.35
67842;BME280;54642;59.126;37.876;2023-03-04T13:09:34;97610.03;;;2.27;69.06
67842;BME280;54642;59.126;37.876;2023-03-04T13:20:35;97650.91;;;2.28;69.33
67842;BME280;54642;59.126;37.876;2023-03-04T13:25:44;97649.25;;;2.24;69.44
67842;BME280;54642;59.126;37.876;2023-03-04T13:41:22;97606.34;;;1.74;69.53
67842;BME280;54642;59.126;37.876;2023-03-04T13:43:55;97626.69;;;1.80;69.96
67842;BME280;54642;59.126;37.876;2023-03-04T13:52:42;97556.50;;;1.31;69.63
67842;BME280;54642;59.126;37.876;2023-03-04T13:57:56;97636.91;;;1.77;69.79
67842;BME280;54642;59.126;37.876;2023-03-04T14:00:24;97650.41;;;1.91;69.87
67842;BME280;54642;59.126;37.876;2023-03-04T14:02:50;97631.81;;;1.77;69.81
67842;BME280;54642;59.126;37.876;2023-03-04T14:05:16;97647.00;;;1.92;69.83
67842;BME280;54642;59.126;37.876;2023-03-04T14:07:42;97626.75;;;1.74;70.06
67842;BME280;54642;59.126;37.876;2023-03-04T14:12:46;97636.09;;;1.73;70.11
67842;BME280;54642;59.126;37.876;2023-03-04T14:17:39;97649.69;;;1.78;70.17
67842;BME280;54642;59.126;37.876;2023-03-04T14:20:25;97647.16;;;1.75;70.30
67842;BME280;54642;59.126;37.876;2023-03-04T14:22:52;97608.19;;;1.51;70.48
67842;BME280;54642;59.126;37.876;2023-03-04T14:25:25;97655.59;;;1.82;70.03
67842;BME280;54642;59.126;37.876;2023-03-04T14:28:15;97656.44;;;1.85;70.27
67842;BME280;54642;59.126;37.876;2023-03-04T14:30:53;97647.88;;;1.89;69.96
67842;BME280;54642;59.126;37.876;2023-03-04T14:33:27;97624.16;;;1.78;69.84
67842;BME280;54642;59.126;37.876;2023-03-04T14:35:56;97596.16;;;1.67;69.89